createdAt,value
2023-04-18T00:00:20.197Z,7.43
2023-04-18T00:05:22.764Z,7.39
2023-04-18T00:10:25.551Z,7.07
2023-04-18T00:15:29.401Z,7.26
2023-04-18T00:20:32.986Z,7.22
2023-04-18T00:25:35.438Z,7.04
2023-04-18T00:30:38.102Z,7.19
2023-04-18T00:35:41.511Z,6.95
2023-04-18T00:40:44.164Z,7.03
2023-04-18T00:45:46.479Z,6.99
2023-04-18T00:50:49.115Z,6.99
2023-04-18T00:55:51.793Z,7.06
2023-04-18T01:00:55.007Z,7.13
2023-04-18T01:05:57.709Z,7.13
2023-04-18T01:11:01.283Z,7.24
2023-04-18T01:16:05.295Z,7.17
2023-04-18T01:21:08.618Z,7.12
2023-04-18T01:26:11.196Z,6.87
2023-04-18T01:31:14.030Z,6.78
2023-04-18T01:36:16.909Z,6.81
2023-04-18T01:41:19.347Z,6.75
2023-04-18T01:46:24.287Z,6.71
2023-04-18T01:51:28.055Z,6.59
2023-04-18T01:56:30.972Z,6.68
2023-04-18T02:01:35.669Z,6.48
2023-04-18T02:06:38.541Z,6.29
2023-04-18T02:11:41.970Z,6.41
2023-04-18T02:16:44.550Z,6.35
2023-04-18T02:21:47.484Z,6.47
2023-04-18T02:26:51.419Z,6.47
2023-04-18T02:31:54.898Z,6.32
2023-04-18T02:36:57.290Z,6.32
2023-04-18T02:42:00.637Z,6.46
2023-04-18T02:47:02.960Z,6.63
2023-04-18T02:52:06.252Z,6.44
2023-04-18T02:57:08.598Z,6.95
2023-04-18T03:02:22.917Z,7.18
2023-04-18T03:07:31.392Z,7.30
2023-04-18T03:12:35.305Z,7.28
2023-04-18T03:17:39.559Z,7.36
2023-04-18T03:22:42.415Z,7.68
2023-04-18T03:27:45.805Z,7.90
2023-04-18T03:32:56.440Z,8.01
2023-04-18T03:37:58.866Z,8.31
2023-04-18T03:43:06.333Z,8.41
2023-04-18T03:48:09.356Z,8.71
2023-04-18T03:53:17.641Z,9.14
2023-04-18T03:58:23.872Z,10.77
2023-04-18T04:03:28.068Z,12.67
2023-04-18T04:08:31.330Z,14.22
2023-04-18T04:13:34.356Z,15.33
2023-04-18T04:18:37.966Z,16.54
2023-04-18T04:23:43.366Z,17.35
2023-04-18T04:28:53.808Z,18.24
2023-04-18T04:34:02.244Z,19.03
2023-04-18T04:39:07.343Z,19.32
2023-04-18T04:44:27.547Z,19.51
2023-04-18T04:49:30.033Z,20.00
2023-04-18T04:54:34.638Z,20.37
2023-04-18T04:59:39.426Z,20.63
2023-04-18T05:04:42.963Z,21.08
2023-04-18T05:09:46.628Z,21.60
2023-04-18T05:14:50.115Z,21.76
2023-04-18T05:19:54.176Z,22.60
2023-04-18T05:24:57.030Z,22.90
2023-04-18T05:29:59.710Z,22.82
2023-04-18T05:35:03.300Z,22.98
2023-04-18T05:40:06.947Z,22.71
2023-04-18T05:45:11.151Z,22.53
2023-04-18T05:50:16.002Z,22.93
2023-04-18T05:55:19.956Z,23.05
2023-04-18T06:00:24.427Z,23.39
2023-04-18T06:05:27.930Z,23.27
2023-04-18T06:10:31.148Z,23.39
2023-04-18T06:15:35.727Z,23.02
2023-04-18T06:20:39.572Z,23.34
2023-04-18T06:25:43.244Z,23.55
2023-04-18T06:30:45.700Z,23.47
2023-04-18T06:35:48.773Z,23.76
2023-04-18T06:40:51.878Z,23.06
2023-04-18T06:45:55.511Z,22.90
2023-04-18T06:50:58.243Z,22.72
2023-04-18T06:56:01.789Z,23.00
2023-04-18T07:01:04.429Z,22.93
2023-04-18T07:06:09.675Z,22.41
2023-04-18T07:11:13.584Z,21.85
2023-04-18T07:16:16.919Z,21.92
2023-04-18T07:21:19.842Z,21.86
2023-04-18T07:26:23.348Z,21.56
2023-04-18T07:31:28.985Z,21.02
2023-04-18T07:36:35.004Z,20.55
2023-04-18T07:41:38.092Z,19.75
2023-04-18T07:46:45.564Z,19.21
2023-04-18T07:51:48.032Z,18.68
2023-04-18T07:56:51.252Z,18.66
2023-04-18T08:01:54.753Z,18.36
2023-04-18T08:06:57.695Z,18.22
2023-04-18T08:12:00.369Z,17.96
2023-04-18T08:17:03.634Z,17.55
2023-04-18T08:22:11.762Z,17.67
2023-04-18T08:27:14.214Z,17.42
2023-04-18T08:32:17.868Z,17.25
2023-04-18T08:37:21.760Z,17.49
2023-04-18T08:42:36.632Z,17.31
2023-04-18T08:47:48.709Z,17.31
2023-04-18T08:52:55.752Z,17.42
2023-04-18T08:57:58.660Z,17.25
2023-04-18T09:03:04.726Z,17.36
2023-04-18T09:08:23.180Z,17.69
2023-04-18T09:13:40.080Z,17.75
2023-04-18T09:19:14.409Z,17.78
2023-04-18T09:24:22.554Z,18.06
2023-04-18T09:29:49.629Z,17.96
2023-04-18T09:35:03.912Z,18.03
2023-04-18T09:40:19.653Z,17.98
2023-04-18T09:45:24.389Z,17.88
2023-04-18T09:50:27.859Z,17.87
2023-04-18T09:55:33.111Z,17.75
2023-04-18T10:00:38.617Z,18.15
2023-04-18T10:05:42.844Z,17.93
2023-04-18T10:10:45.962Z,17.92
2023-04-18T10:15:51.629Z,17.63
2023-04-18T10:21:09.342Z,17.68
2023-04-18T10:26:15.071Z,17.49
2023-04-18T10:31:18.042Z,17.57
2023-04-18T10:36:22.281Z,17.86
2023-04-18T10:41:30.382Z,18.05
2023-04-18T10:47:04.595Z,18.10
2023-04-18T10:52:08.616Z,17.76
2023-04-18T10:57:12.242Z,18.09
2023-04-18T11:02:32.634Z,18.05
2023-04-18T11:07:36.709Z,18.05
2023-04-18T11:12:46.369Z,17.96
2023-04-18T11:18:04.655Z,17.73
2023-04-18T11:23:17.774Z,17.41
2023-04-18T11:28:22.295Z,17.55
2023-04-18T11:33:29.490Z,17.63
2023-04-18T11:38:31.986Z,17.01
2023-04-18T11:43:35.689Z,17.27
2023-04-18T11:48:42.595Z,17.76
2023-04-18T11:53:45.784Z,17.25
2023-04-18T11:58:48.575Z,17.33
2023-04-18T12:04:08.448Z,16.95
2023-04-18T12:09:17.390Z,17.32
2023-04-18T12:14:23.231Z,17.40
2023-04-18T12:19:28.865Z,17.29
2023-04-18T12:24:32.370Z,17.51
2023-04-18T12:29:35.891Z,17.35
2023-04-18T12:34:40.764Z,17.50
2023-04-18T12:39:44.070Z,17.66
2023-04-18T12:44:48.784Z,17.43
2023-04-18T12:49:58.546Z,17.43
2023-04-18T12:55:10.670Z,17.26
2023-04-18T13:00:14.612Z,16.70
2023-04-18T13:05:32.575Z,17.51
2023-04-18T13:10:37.021Z,17.53
2023-04-18T13:15:39.401Z,17.57
2023-04-18T13:20:41.808Z,17.54
2023-04-18T13:25:44.165Z,17.64
2023-04-18T13:30:46.738Z,17.54
2023-04-18T13:35:53.490Z,17.35
2023-04-18T13:41:10.878Z,17.52
2023-04-18T13:46:17.991Z,17.40
2023-04-18T13:51:20.917Z,17.40
2023-04-18T13:56:23.463Z,17.46
2023-04-18T14:01:26.650Z,17.41
2023-04-18T14:06:29.490Z,17.43
2023-04-18T14:11:32.936Z,17.09
2023-04-18T14:16:35.314Z,17.28
2023-04-18T14:21:37.875Z,17.11
2023-04-18T14:26:40.146Z,17.21
2023-04-18T14:31:43.156Z,17.11
2023-04-18T14:36:46.344Z,17.28
2023-04-18T14:41:49.310Z,17.08
2023-04-18T14:46:52.260Z,17.14
2023-04-18T14:51:54.617Z,16.84
2023-04-18T14:56:57.660Z,17.07
2023-04-18T15:02:00.171Z,17.03
2023-04-18T15:07:02.688Z,16.79
2023-04-18T15:12:06.883Z,16.85
2023-04-18T15:17:10.192Z,16.58
2023-04-18T15:22:12.718Z,16.64
2023-04-18T15:27:15.334Z,16.42
2023-04-18T15:32:18.233Z,16.44
2023-04-18T15:37:21.627Z,16.31
2023-04-18T15:42:23.950Z,15.98
2023-04-18T15:47:26.690Z,16.06
2023-04-18T15:52:29.408Z,15.82
2023-04-18T15:57:32.525Z,15.83
2023-04-18T16:02:34.865Z,15.42
2023-04-18T16:07:37.741Z,15.56
2023-04-18T16:12:40.164Z,15.46
2023-04-18T16:17:42.782Z,15.36
2023-04-18T16:22:45.263Z,15.27
2023-04-18T16:27:47.972Z,15.21
2023-04-18T16:32:51.195Z,15.07
2023-04-18T16:37:53.861Z,14.94
2023-04-18T16:42:57.314Z,14.92
2023-04-18T16:47:59.607Z,14.61
2023-04-18T16:53:02.299Z,14.58
2023-04-18T16:58:04.636Z,14.70
2023-04-18T17:03:10.482Z,14.64
2023-04-18T17:08:13.252Z,14.73
2023-04-18T17:13:15.624Z,14.81
2023-04-18T17:18:17.954Z,14.78
2023-04-18T17:23:20.226Z,14.58
2023-04-18T17:28:23.866Z,14.48
2023-04-18T17:33:26.330Z,14.50
2023-04-18T17:38:28.713Z,14.48
2023-04-18T17:43:31.293Z,14.40
2023-04-18T17:48:34.398Z,14.28
2023-04-18T17:53:37.222Z,14.30
2023-04-18T17:58:39.907Z,14.13
2023-04-18T18:03:43.455Z,14.14
2023-04-18T18:08:46.092Z,14.03
2023-04-18T18:13:52.038Z,14.04
2023-04-18T18:18:54.868Z,13.90
2023-04-18T18:23:57.330Z,13.83
2023-04-18T18:28:59.780Z,13.79
2023-04-18T18:34:02.413Z,13.65
2023-04-18T18:39:04.792Z,13.62
2023-04-18T18:44:07.813Z,13.48
2023-04-18T18:49:10.216Z,13.41
2023-04-18T18:54:13.487Z,13.25
2023-04-18T18:59:16.110Z,13.20
2023-04-18T19:04:18.791Z,13.23
2023-04-18T19:09:21.236Z,13.11
2023-04-18T19:14:23.769Z,13.14
2023-04-18T19:19:26.168Z,13.14
2023-04-18T19:24:28.875Z,12.87
2023-04-18T19:29:32.715Z,12.88
2023-04-18T19:34:35.638Z,12.76
2023-04-18T19:39:38.072Z,12.74
2023-04-18T19:44:40.851Z,12.64
2023-04-18T19:49:44.592Z,12.41
2023-04-18T19:54:47.017Z,12.56
2023-04-18T19:59:49.609Z,12.35
2023-04-18T20:04:52.270Z,12.43
2023-04-18T20:09:54.784Z,11.97
2023-04-18T20:14:59.011Z,12.06
2023-04-18T20:20:01.637Z,12.27
2023-04-18T20:25:06.919Z,12.20
2023-04-18T20:30:10.910Z,12.14
2023-04-18T20:35:14.254Z,12.07
2023-04-18T20:40:16.753Z,12.12
2023-04-18T20:45:19.667Z,12.04
2023-04-18T20:50:22.187Z,11.99
2023-04-18T20:55:24.521Z,11.92
2023-04-18T21:00:28.844Z,11.79
2023-04-18T21:05:32.320Z,11.64
2023-04-18T21:10:35.119Z,11.47
2023-04-18T21:15:39.090Z,11.48
2023-04-18T21:20:42.145Z,11.38
2023-04-18T21:25:45.265Z,11.24
2023-04-18T21:30:48.246Z,11.12
2023-04-18T21:35:51.667Z,10.96
2023-04-18T21:40:54.618Z,11.10
2023-04-18T21:45:56.929Z,10.98
2023-04-18T21:51:00.519Z,10.98
2023-04-18T21:56:03.048Z,10.86
2023-04-18T22:01:05.718Z,10.71
2023-04-18T22:06:08.116Z,10.66
2023-04-18T22:11:11.906Z,10.75
2023-04-18T22:16:16.106Z,10.47
2023-04-18T22:21:18.693Z,10.45
2023-04-18T22:26:22.140Z,10.13
2023-04-18T22:31:25.766Z,10.04
2023-04-18T22:36:28.227Z,10.08
2023-04-18T22:41:30.581Z,10.02
2023-04-18T22:46:33.554Z,9.92
2023-04-18T22:51:35.987Z,9.62
2023-04-18T22:56:38.889Z,9.70
2023-04-18T23:01:41.348Z,9.53
2023-04-18T23:06:45.037Z,9.42
2023-04-18T23:11:48.037Z,9.44
2023-04-18T23:16:52.030Z,9.56
2023-04-18T23:21:54.900Z,9.41
2023-04-18T23:26:58.410Z,9.46
2023-04-18T23:32:00.886Z,9.37
2023-04-18T23:37:03.280Z,9.39
2023-04-18T23:42:05.783Z,9.51
2023-04-18T23:47:08.322Z,9.18
2023-04-18T23:52:10.962Z,9.26
2023-04-18T23:57:13.347Z,9.24
